sensor_id;sensor_type;location;lat;lon;timestamp;pressure;altitude;pressure_sealevel;temperature;humidity
12468;BME280;57850;52.922;6.256;2023-02-19T00:01:46;101571.56;;;12.43;nan
12468;BME280;57850;52.922;6.256;2023-02-19T00:04:15;101577.25;;;12.81;nan
12468;BME280;57850;52.922;6.256;2023-02-19T00:06:42;101584.03;;;12.62;nan
12468;BME280;57850;52.922;6.256;2023-02-19T00:09:10;101608.50;;;12.33;nan
12468;BME280;57850;52.922;6.256;2023-02-19T00:11:38;101590.28;;;12.57;nan
12468;BME280;57850;52.922;6.256;2023-02-19T00:14:05;101610.38;;;12.56;nan
12468;BME280;57850;52.922;6.256;2023-02-19T00:16:33;101606.94;;;12.54;nan
12468;BME280;57850;52.922;6.256;2023-02-19T00:19:02;101613.75;;;12.60;nan
12468;BME280;57850;52.922;6.256;2023-02-19T00:21:30;101619.66;;;12.39;nan
12468;BME280;57850;52.922;6.256;2023-02-19T00:23:58;101615.66;;;12.55;nan
12468;BME280;57850;52.922;6.256;2023-02-19T00:26:26;101622.44;;;12.62;nan
12468;BME280;57850;52.922;6.256;2023-02-19T00:28:54;101622.44;;;12.62;nan
12468;BME280;57850;52.922;6.256;2023-02-19T00:31:22;101637.59;;;12.51;nan
12468;BME280;57850;52.922;6.256;2023-02-19T00:33:51;101644.28;;;12.33;nan
12468;BME280;57850;52.922;6.256;2023-02-19T00:36:18;101625.38;;;12.51;nan
12468;BME280;57850;52.922;6.256;2023-02-19T00:38:47;101625.91;;;12.62;nan
12468;BME280;57850;52.922;6.256;2023-02-19T00:41:15;101648.81;;;12.56;nan
12468;BME280;57850;52.922;6.256;2023-02-19T00:43:50;101653.69;;;12.39;nan
12468;BME280;57850;52.922;6.256;2023-02-19T00:46:20;101662.34;;;12.41;nan
12468;BME280;57850;52.922;6.256;2023-02-19T00:48:47;101645.94;;;12.63;nan
12468;BME280;57850;52.922;6.256;2023-02-19T00:51:14;101661.91;;;12.56;nan
12468;BME280;57850;52.922;6.256;2023-02-19T00:53:41;101670.25;;;12.39;nan
12468;BME280;57850;52.922;6.256;2023-02-19T00:56:10;101671.44;;;12.29;nan
12468;BME280;57850;52.922;6.256;2023-02-19T00:58:37;101662.25;;;12.44;nan
12468;BME280;57850;52.922;6.256;2023-02-19T01:01:04;101662.78;;;12.55;nan
12468;BME280;57850;52.922;6.256;2023-02-19T01:03:31;101678.13;;;12.38;nan
12468;BME280;57850;52.922;6.256;2023-02-19T01:05:58;101679.28;;;12.29;nan
12468;BME280;57850;52.922;6.256;2023-02-19T01:08:26;101662.81;;;12.53;nan
12468;BME280;57850;52.922;6.256;2023-02-19T01:10:55;101671.03;;;12.43;nan
12468;BME280;57850;52.922;6.256;2023-02-19T01:13:24;101665.22;;;12.61;nan
12468;BME280;57850;52.922;6.256;2023-02-19T01:15:52;101671.72;;;12.48;nan
12468;BME280;57850;52.922;6.256;2023-02-19T01:18:19;101676.94;;;12.49;nan
12468;BME280;57850;52.922;6.256;2023-02-19T01:20:45;101679.47;;;12.23;nan
12468;BME280;57850;52.922;6.256;2023-02-19T01:23:12;101681.81;;;12.60;nan
12468;BME280;57850;52.922;6.256;2023-02-19T01:25:39;101688.78;;;12.61;nan
12468;BME280;57850;52.922;6.256;2023-02-19T01:28:06;101699.44;;;12.55;nan
12468;BME280;57850;52.922;6.256;2023-02-19T01:30:35;101688.13;;;11.96;nan
12468;BME280;57850;52.922;6.256;2023-02-19T01:33:02;101669.84;;;12.23;nan
12468;BME280;57850;52.922;6.256;2023-02-19T01:35:28;101674.19;;;12.24;nan
12468;BME280;57850;52.922;6.256;2023-02-19T01:37:56;101655.72;;;12.29;nan
12468;BME280;57850;52.922;6.256;2023-02-19T01:40:23;101677.47;;;12.02;nan
12468;BME280;57850;52.922;6.256;2023-02-19T01:42:49;101659.94;;;12.05;nan
12468;BME280;57850;52.922;6.256;2023-02-19T01:45:28;101659.94;;;12.05;nan
12468;BME280;57850;52.922;6.256;2023-02-19T01:48:05;101657.56;;;12.25;nan
12468;BME280;57850;52.922;6.256;2023-02-19T01:50:37;101692.09;;;11.78;nan
12468;BME280;57850;52.922;6.256;2023-02-19T01:53:07;101665.56;;;11.92;nan
12468;BME280;57850;52.922;6.256;2023-02-19T01:55:35;101672.25;;;11.71;nan
12468;BME280;57850;52.922;6.256;2023-02-19T01:58:02;101662.31;;;11.84;nan
12468;BME280;57850;52.922;6.256;2023-02-19T02:00:32;101659.78;;;11.80;nan
12468;BME280;57850;52.922;6.256;2023-02-19T02:03:01;101652.78;;;12.12;nan
12468;BME280;57850;52.922;6.256;2023-02-19T02:05:43;101674.44;;;11.86;nan
12468;BME280;57850;52.922;6.256;2023-02-19T02:08:12;101656.13;;;12.15;nan
12468;BME280;57850;52.922;6.256;2023-02-19T02:10:57;101671.81;;;12.15;nan
12468;BME280;57850;52.922;6.256;2023-02-19T02:13:24;101664.91;;;12.14;nan
12468;BME280;57850;52.922;6.256;2023-02-19T02:15:59;101662.81;;;12.25;nan
12468;BME280;57850;52.922;6.256;2023-02-19T02:18:42;101663.00;;;12.19;nan
12468;BME280;57850;52.922;6.256;2023-02-19T02:21:42;101689.56;;;12.35;nan
12468;BME280;57850;52.922;6.256;2023-02-19T02:24:30;101699.63;;;12.49;nan
12468;BME280;57850;52.922;6.256;2023-02-19T02:27:13;101711.56;;;12.28;nan
12468;BME280;57850;52.922;6.256;2023-02-19T02:30:08;101700.84;;;12.08;nan
12468;BME280;57850;52.922;6.256;2023-02-19T02:32:40;101699.97;;;12.07;nan
12468;BME280;57850;52.922;6.256;2023-02-19T02:35:19;101690.59;;;12.00;nan
12468;BME280;57850;52.922;6.256;2023-02-19T02:37:47;101695.78;;;12.02;nan
12468;BME280;57850;52.922;6.256;2023-02-19T02:40:16;101696.94;;;11.92;nan
12468;BME280;57850;52.922;6.256;2023-02-19T02:42:43;101691.94;;;12.13;nan
12468;BME280;57850;52.922;6.256;2023-02-19T02:45:27;101700.03;;;12.06;nan
12468;BME280;57850;52.922;6.256;2023-02-19T02:48:08;101699.94;;;12.09;nan
12468;BME280;57850;52.922;6.256;2023-02-19T02:50:37;101688.03;;;11.66;nan
12468;BME280;57850;52.922;6.256;2023-02-19T02:53:09;101681.31;;;11.90;nan
12468;BME280;57850;52.922;6.256;2023-02-19T02:55:54;101691.59;;;11.96;nan
12468;BME280;57850;52.922;6.256;2023-02-19T02:58:23;101683.31;;;12.11;nan
12468;BME280;57850;52.922;6.256;2023-02-19T03:00:55;101718.16;;;11.81;nan
12468;BME280;57850;52.922;6.256;2023-02-19T03:03:43;101715.28;;;11.58;nan
12468;BME280;57850;52.922;6.256;2023-02-19T03:06:14;101700.31;;;11.63;nan
12468;BME280;57850;52.922;6.256;2023-02-19T03:08:47;101682.88;;;11.96;nan
12468;BME280;57850;52.922;6.256;2023-02-19T03:11:16;101702.59;;;11.76;nan
12468;BME280;57850;52.922;6.256;2023-02-19T03:14:06;101708.66;;;12.39;nan
12468;BME280;57850;52.922;6.256;2023-02-19T03:16:56;101728.31;;;12.52;nan
12468;BME280;57850;52.922;6.256;2023-02-19T03:19:44;101734.38;;;12.54;nan
12468;BME280;57850;52.922;6.256;2023-02-19T03:22:16;101760.13;;;12.38;nan
12468;BME280;57850;52.922;6.256;2023-02-19T03:24:49;101772.19;;;12.44;nan
12468;BME280;57850;52.922;6.256;2023-02-19T03:27:35;101784.38;;;12.45;nan
12468;BME280;57850;52.922;6.256;2023-02-19T03:30:08;101790.28;;;12.51;nan
12468;BME280;57850;52.922;6.256;2023-02-19T03:32:39;101796.91;;;12.63;nan
12468;BME280;57850;52.922;6.256;2023-02-19T03:35:10;101798.03;;;12.56;nan
12468;BME280;57850;52.922;6.256;2023-02-19T03:37:41;101789.47;;;12.78;nan
12468;BME280;57850;52.922;6.256;2023-02-19T03:40:10;101811.38;;;12.47;nan
12468;BME280;57850;52.922;6.256;2023-02-19T03:42:41;101814.25;;;12.67;nan
12468;BME280;57850;52.922;6.256;2023-02-19T03:45:23;101819.03;;;12.82;nan
12468;BME280;57850;52.922;6.256;2023-02-19T03:47:54;101824.81;;;12.65;nan
12468;BME280;57850;52.922;6.256;2023-02-19T03:50:28;101825.03;;;12.87;nan
12468;BME280;57850;52.922;6.256;2023-02-19T03:53:02;101835.22;;;12.67;nan
12468;BME280;57850;52.922;6.256;2023-02-19T03:55:37;101847.81;;;12.83;nan
12468;BME280;57850;52.922;6.256;2023-02-19T03:58:11;101857.22;;;12.60;nan
12468;BME280;57850;52.922;6.256;2023-02-19T04:00:44;101865.59;;;12.09;nan
12468;BME280;57850;52.922;6.256;2023-02-19T04:03:19;101849.81;;;12.12;nan
12468;BME280;57850;52.922;6.256;2023-02-19T04:05:52;101830.78;;;12.07;nan
12468;BME280;57850;52.922;6.256;2023-02-19T04:08:22;101831.41;;;12.48;nan
12468;BME280;57850;52.922;6.256;2023-02-19T04:10:50;101848.72;;;12.21;nan
12468;BME280;57850;52.922;6.256;2023-02-19T04:13:20;101858.28;;;12.22;nan
12468;BME280;57850;52.922;6.256;2023-02-19T04:15:49;101861.03;;;12.50;nan
12468;BME280;57850;52.922;6.256;2023-02-19T04:18:23;101876.66;;;12.53;nan
12468;BME280;57850;52.922;6.256;2023-02-19T04:20:51;101880.72;;;12.63;nan
12468;BME280;57850;52.922;6.256;2023-02-19T04:23:21;101891.41;;;12.55;nan
12468;BME280;57850;52.922;6.256;2023-02-19T04:25:51;101903.91;;;12.44;nan
12468;BME280;57850;52.922;6.256;2023-02-19T04:28:20;101910.81;;;12.14;nan
12468;BME280;57850;52.922;6.256;2023-02-19T04:30:47;101925.81;;;12.08;nan
12468;BME280;57850;52.922;6.256;2023-02-19T04:33:13;101926.59;;;12.11;nan
12468;BME280;57850;52.922;6.256;2023-02-19T04:35:41;101960.72;;;11.70;nan
12468;BME280;57850;52.922;6.256;2023-02-19T04:38:08;101968.59;;;11.67;nan
12468;BME280;57850;52.922;6.256;2023-02-19T04:40:34;101979.69;;;11.38;nan
12468;BME280;57850;52.922;6.256;2023-02-19T04:43:01;101980.53;;;11.40;nan
12468;BME280;57850;52.922;6.256;2023-02-19T04:45:27;101991.91;;;11.38;nan
12468;BME280;57850;52.922;6.256;2023-02-19T04:47:56;101994.50;;;11.39;nan
12468;BME280;57850;52.922;6.256;2023-02-19T04:50:23;101992.19;;;11.64;nan
12468;BME280;57850;52.922;6.256;2023-02-19T04:52:51;102011.97;;;11.36;nan
12468;BME280;57850;52.922;6.256;2023-02-19T04:55:17;102019.75;;;11.40;nan
12468;BME280;57850;52.922;6.256;2023-02-19T04:57:44;102024.03;;;11.43;nan
12468;BME280;57850;52.922;6.256;2023-02-19T05:00:11;102020.28;;;11.56;nan
12468;BME280;57850;52.922;6.256;2023-02-19T05:02:38;102036.06;;;11.50;nan
12468;BME280;57850;52.922;6.256;2023-02-19T05:05:04;102035.31;;;11.45;nan
12468;BME280;57850;52.922;6.256;2023-02-19T05:07:32;102042.94;;;11.54;nan
12468;BME280;57850;52.922;6.256;2023-02-19T05:10:00;102053.53;;;11.48;nan
12468;BME280;57850;52.922;6.256;2023-02-19T05:12:28;102061.31;;;11.51;nan
12468;BME280;57850;52.922;6.256;2023-02-19T05:14:55;102066.47;;;11.54;nan
12468;BME280;57850;52.922;6.256;2023-02-19T05:17:21;102066.72;;;11.43;nan
12468;BME280;57850;52.922;6.256;2023-02-19T05:19:48;102080.09;;;11.26;nan
12468;BME280;57850;52.922;6.256;2023-02-19T05:22:14;102074.69;;;11.36;nan
12468;BME280;57850;52.922;6.256;2023-02-19T05:24:43;102072.78;;;11.44;nan
12468;BME280;57850;52.922;6.256;2023-02-19T05:27:10;102098.41;;;11.25;nan
12468;BME280;57850;52.922;6.256;2023-02-19T05:29:37;102120.56;;;11.03;nan
12468;BME280;57850;52.922;6.256;2023-02-19T05:32:04;102130.91;;;11.10;nan
12468;BME280;57850;52.922;6.256;2023-02-19T05:34:30;102128.50;;;10.97;nan
12468;BME280;57850;52.922;6.256;2023-02-19T05:36:57;102132.94;;;10.93;nan
12468;BME280;57850;52.922;6.256;2023-02-19T05:39:24;102129.22;;;11.06;nan
12468;BME280;57850;52.922;6.256;2023-02-19T05:41:50;102137.28;;;10.94;nan
12468;BME280;57850;52.922;6.256;2023-02-19T05:44:18;102151.41;;;10.83;nan
12468;BME280;57850;52.922;6.256;2023-02-19T05:46:45;102153.25;;;10.74;nan
12468;BME280;57850;52.922;6.256;2023-02-19T05:49:11;102148.81;;;10.81;nan
12468;BME280;57850;52.922;6.256;2023-02-19T05:51:38;102160.25;;;10.72;nan
12468;BME280;57850;52.922;6.256;2023-02-19T05:54:04;102139.09;;;10.89;nan
12468;BME280;57850;52.922;6.256;2023-02-19T05:56:33;102148.41;;;11.05;nan
12468;BME280;57850;52.922;6.256;2023-02-19T05:59:02;102149.06;;;11.16;nan
12468;BME280;57850;52.922;6.256;2023-02-19T06:01:33;102167.63;;;11.01;nan
12468;BME280;57850;52.922;6.256;2023-02-19T06:04:00;102171.06;;;11.03;nan
12468;BME280;57850;52.922;6.256;2023-02-19T06:06:27;102164.03;;;11.08;nan
12468;BME280;57850;52.922;6.256;2023-02-19T06:08:54;102176.44;;;10.94;nan
12468;BME280;57850;52.922;6.256;2023-02-19T06:11:22;102180.66;;;11.03;nan
12468;BME280;57850;52.922;6.256;2023-02-19T06:13:49;102179.75;;;11.05;nan
12468;BME280;57850;52.922;6.256;2023-02-19T06:16:16;102184.13;;;11.05;nan
12468;BME280;57850;52.922;6.256;2023-02-19T06:18:45;102194.53;;;11.06;nan
12468;BME280;57850;52.922;6.256;2023-02-19T06:21:12;102198.00;;;11.07;nan
12468;BME280;57850;52.922;6.256;2023-02-19T06:23:39;102210.28;;;11.02;nan
12468;BME280;57850;52.922;6.256;2023-02-19T06:26:07;102212.91;;;11.02;nan
12468;BME280;57850;52.922;6.256;2023-02-19T06:28:35;102221.59;;;11.01;nan
12468;BME280;57850;52.922;6.256;2023-02-19T06:31:02;102244.38;;;10.91;nan
12468;BME280;57850;52.922;6.256;2023-02-19T06:33:28;102255.78;;;10.84;nan
12468;BME280;57850;52.922;6.256;2023-02-19T06:35:58;102250.44;;;10.95;nan
12468;BME280;57850;52.922;6.256;2023-02-19T06:38:26;102273.19;;;10.87;nan
12468;BME280;57850;52.922;6.256;2023-02-19T06:40:53;102287.47;;;10.60;nan
12468;BME280;57850;52.922;6.256;2023-02-19T06:43:20;102307.00;;;10.30;nan
12468;BME280;57850;52.922;6.256;2023-02-19T06:45:46;102305.28;;;10.25;nan
12468;BME280;57850;52.922;6.256;2023-02-19T06:48:13;102311.53;;;10.14;nan
12468;BME280;57850;52.922;6.256;2023-02-19T06:50:39;102323.72;;;10.06;nan
12468;BME280;57850;52.922;6.256;2023-02-19T06:53:07;102327.06;;;10.24;nan
12468;BME280;57850;52.922;6.256;2023-02-19T06:55:36;102333.09;;;10.29;nan
12468;BME280;57850;52.922;6.256;2023-02-19T06:58:02;102346.22;;;10.18;nan
12468;BME280;57850;52.922;6.256;2023-02-19T07:00:29;102364.50;;;10.16;nan
12468;BME280;57850;52.922;6.256;2023-02-19T07:02:55;102361.81;;;10.27;nan
12468;BME280;57850;52.922;6.256;2023-02-19T07:05:23;102376.66;;;10.20;nan
12468;BME280;57850;52.922;6.256;2023-02-19T07:07:50;102397.63;;;10.02;nan
12468;BME280;57850;52.922;6.256;2023-02-19T07:10:18;102399.47;;;9.94;nan
12468;BME280;57850;52.922;6.256;2023-02-19T07:12:44;102393.31;;;10.00;nan
12468;BME280;57850;52.922;6.256;2023-02-19T07:15:11;102397.56;;;10.13;nan
12468;BME280;57850;52.922;6.256;2023-02-19T07:17:37;102404.41;;;10.25;nan
12468;BME280;57850;52.922;6.256;2023-02-19T07:20:04;102400.28;;;10.01;nan
12468;BME280;57850;52.922;6.256;2023-02-19T07:22:31;102403.84;;;9.92;nan
12468;BME280;57850;52.922;6.256;2023-02-19T07:24:57;102391.50;;;10.09;nan
12468;BME280;57850;52.922;6.256;2023-02-19T07:27:25;102390.56;;;10.21;nan
12468;BME280;57850;52.922;6.256;2023-02-19T07:29:53;102393.25;;;10.07;nan
12468;BME280;57850;52.922;6.256;2023-02-19T07:32:19;102389.72;;;10.16;nan
12468;BME280;57850;52.922;6.256;2023-02-19T07:34:46;102386.19;;;10.21;nan
12468;BME280;57850;52.922;6.256;2023-02-19T07:37:12;102386.19;;;10.23;nan
12468;BME280;57850;52.922;6.256;2023-02-19T07:39:39;102392.28;;;10.24;nan
12468;BME280;57850;52.922;6.256;2023-02-19T07:42:05;102412.47;;;9.97;nan
12468;BME280;57850;52.922;6.256;2023-02-19T07:44:33;102403.66;;;10.13;nan
12468;BME280;57850;52.922;6.256;2023-02-19T07:47:00;102404.47;;;10.18;nan
12468;BME280;57850;52.922;6.256;2023-02-19T07:49:26;102413.94;;;10.29;nan
12468;BME280;57850;52.922;6.256;2023-02-19T07:51:53;102426.00;;;10.42;nan
12468;BME280;57850;52.922;6.256;2023-02-19T07:54:19;102429.63;;;10.27;nan
12468;BME280;57850;52.922;6.256;2023-02-19T07:56:46;102420.78;;;10.42;nan
12468;BME280;57850;52.922;6.256;2023-02-19T07:59:12;102434.59;;;10.50;nan
12468;BME280;57850;52.922;6.256;2023-02-19T08:01:41;102437.28;;;10.45;nan
12468;BME280;57850;52.922;6.256;2023-02-19T08:04:25;102445.97;;;10.46;nan
12468;BME280;57850;52.922;6.256;2023-02-19T08:06:52;102443.38;;;10.46;nan
12468;BME280;57850;52.922;6.256;2023-02-19T08:09:18;102443.31;;;10.50;nan
12468;BME280;57850;52.922;6.256;2023-02-19T08:11:45;102441.53;;;10.55;nan
12468;BME280;57850;52.922;6.256;2023-02-19T08:14:29;102447.56;;;10.60;nan
12468;BME280;57850;52.922;6.256;2023-02-19T08:16:57;102463.19;;;10.65;nan
12468;BME280;57850;52.922;6.256;2023-02-19T08:19:24;102472.66;;;10.72;nan
12468;BME280;57850;52.922;6.256;2023-02-19T08:21:51;102469.88;;;10.87;nan
12468;BME280;57850;52.922;6.256;2023-02-19T08:24:18;102479.09;;;11.15;nan
12468;BME280;57850;52.922;6.256;2023-02-19T08:26:44;102486.03;;;11.21;nan
12468;BME280;57850;52.922;6.256;2023-02-19T08:29:11;102491.72;;;11.52;nan
12468;BME280;57850;52.922;6.256;2023-02-19T08:31:37;102496.09;;;11.50;nan
12468;BME280;57850;52.922;6.256;2023-02-19T08:34:05;102481.13;;;12.19;nan
12468;BME280;57850;52.922;6.256;2023-02-19T08:36:32;102464.66;;;13.09;nan
12468;BME280;57850;52.922;6.256;2023-02-19T08:38:58;102469.56;;;13.64;nan
12468;BME280;57850;52.922;6.256;2023-02-19T08:41:25;102458.22;;;13.99;nan
12468;BME280;57850;52.922;6.256;2023-02-19T08:43:53;102439.94;;;14.63;nan
12468;BME280;57850;52.922;6.256;2023-02-19T08:46:19;102437.56;;;14.85;nan
12468;BME280;57850;52.922;6.256;2023-02-19T08:48:47;102424.16;;;15.23;nan
12468;BME280;57850;52.922;6.256;2023-02-19T08:51:14;102414.78;;;15.72;nan
12468;BME280;57850;52.922;6.256;2023-02-19T08:53:41;102415.09;;;15.89;nan
12468;BME280;57850;52.922;6.256;2023-02-19T08:56:10;102405.47;;;16.14;nan
12468;BME280;57850;52.922;6.256;2023-02-19T08:58:37;102393.88;;;16.44;nan
12468;BME280;57850;52.922;6.256;2023-02-19T09:01:07;102386.97;;;16.40;nan
12468;BME280;57850;52.922;6.256;2023-02-19T09:03:34;102406.75;;;16.27;nan
12468;BME280;57850;52.922;6.256;2023-02-19T09:06:00;102406.53;;;16.59;nan
12468;BME280;57850;52.922;6.256;2023-02-19T09:08:29;102428.63;;;16.54;nan
12468;BME280;57850;52.922;6.256;2023-02-19T09:10:58;102382.41;;;17.82;nan
12468;BME280;57850;52.922;6.256;2023-02-19T09:13:24;102358.88;;;18.36;nan
12468;BME280;57850;52.922;6.256;2023-02-19T09:15:51;102381.44;;;18.25;nan
12468;BME280;57850;52.922;6.256;2023-02-19T09:18:17;102374.69;;;18.38;nan
12468;BME280;57850;52.922;6.256;2023-02-19T09:20:44;102428.22;;;17.59;nan
12468;BME280;57850;52.922;6.256;2023-02-19T09:23:10;102451.56;;;17.23;nan
12468;BME280;57850;52.922;6.256;2023-02-19T09:25:38;102463.81;;;17.02;nan
12468;BME280;57850;52.922;6.256;2023-02-19T09:28:05;102518.88;;;15.82;nan
12468;BME280;57850;52.922;6.256;2023-02-19T09:30:31;102545.38;;;15.45;nan
12468;BME280;57850;52.922;6.256;2023-02-19T09:32:58;102463.75;;;17.04;nan
12468;BME280;57850;52.922;6.256;2023-02-19T09:35:24;102434.28;;;17.61;nan
12468;BME280;57850;52.922;6.256;2023-02-19T09:37:51;102449.56;;;17.30;nan
12468;BME280;57850;52.922;6.256;2023-02-19T09:40:18;102443.88;;;17.63;nan
12468;BME280;57850;52.922;6.256;2023-02-19T09:42:49;102504.94;;;16.58;nan
12468;BME280;57850;52.922;6.256;2023-02-19T09:45:20;102524.75;;;16.44;nan
12468;BME280;57850;52.922;6.256;2023-02-19T09:47:48;102503.38;;;16.78;nan
12468;BME280;57850;52.922;6.256;2023-02-19T09:50:30;102474.81;;;17.60;nan
12468;BME280;57850;52.922;6.256;2023-02-19T09:53:01;102381.72;;;19.15;nan
12468;BME280;57850;52.922;6.256;2023-02-19T09:55:31;102452.09;;;17.78;nan
12468;BME280;57850;52.922;6.256;2023-02-19T09:58:06;102438.22;;;18.14;nan
12468;BME280;57850;52.922;6.256;2023-02-19T10:00:38;102399.81;;;19.24;nan
12468;BME280;57850;52.922;6.256;2023-02-19T10:03:08;102400.66;;;18.87;nan
12468;BME280;57850;52.922;6.256;2023-02-19T10:05:37;102400.75;;;18.86;nan
12468;BME280;57850;52.922;6.256;2023-02-19T10:08:08;102460.19;;;17.73;nan
12468;BME280;57850;52.922;6.256;2023-02-19T10:10:38;102484.63;;;17.56;nan
12468;BME280;57850;52.922;6.256;2023-02-19T10:13:16;102498.53;;;17.13;nan
12468;BME280;57850;52.922;6.256;2023-02-19T10:15:46;102550.84;;;16.25;nan
12468;BME280;57850;52.922;6.256;2023-02-19T10:18:15;102523.03;;;16.94;nan
12468;BME280;57850;52.922;6.256;2023-02-19T10:20:42;102574.16;;;15.82;nan
12468;BME280;57850;52.922;6.256;2023-02-19T10:23:11;102592.66;;;15.49;nan
12468;BME280;57850;52.922;6.256;2023-02-19T10:25:43;102619.03;;;15.14;nan
12468;BME280;57850;52.922;6.256;2023-02-19T10:28:13;102625.94;;;15.18;nan
12468;BME280;57850;52.922;6.256;2023-02-19T10:30:41;102610.44;;;15.71;nan
12468;BME280;57850;52.922;6.256;2023-02-19T10:33:10;102571.88;;;16.53;nan
12468;BME280;57850;52.922;6.256;2023-02-19T10:35:49;102496.22;;;18.17;nan
12468;BME280;57850;52.922;6.256;2023-02-19T10:38:17;102453.91;;;18.80;nan
12468;BME280;57850;52.922;6.256;2023-02-19T10:40:44;102393.75;;;19.94;nan
12468;BME280;57850;52.922;6.256;2023-02-19T10:43:20;102387.53;;;19.95;nan
12468;BME280;57850;52.922;6.256;2023-02-19T10:45:48;102359.38;;;20.59;nan
12468;BME280;57850;52.922;6.256;2023-02-19T10:48:21;102332.81;;;20.76;nan
12468;BME280;57850;52.922;6.256;2023-02-19T10:50:50;102306.25;;;21.39;nan
12468;BME280;57850;52.922;6.256;2023-02-19T10:53:33;102325.44;;;20.81;nan
12468;BME280;57850;52.922;6.256;2023-02-19T10:56:06;102461.41;;;18.70;nan
12468;BME280;57850;52.922;6.256;2023-02-19T10:58:34;102524.13;;;17.59;nan
12468;BME280;57850;52.922;6.256;2023-02-19T11:01:10;102605.59;;;16.16;nan
12468;BME280;57850;52.922;6.256;2023-02-19T11:03:37;102627.44;;;15.90;nan
12468;BME280;57850;52.922;6.256;2023-02-19T11:06:06;102610.84;;;16.16;nan
12468;BME280;57850;52.922;6.256;2023-02-19T11:08:49;102665.69;;;15.06;nan
12468;BME280;57850;52.922;6.256;2023-02-19T11:11:22;102665.13;;;15.27;nan
12468;BME280;57850;52.922;6.256;2023-02-19T11:13:52;102682.69;;;14.93;nan
12468;BME280;57850;52.922;6.256;2023-02-19T11:16:19;102676.22;;;15.06;nan
12468;BME280;57850;52.922;6.256;2023-02-19T11:18:52;102696.28;;;14.75;nan
12468;BME280;57850;52.922;6.256;2023-02-19T11:21:24;102684.28;;;14.98;nan
12468;BME280;57850;52.922;6.256;2023-02-19T11:23:54;102601.25;;;16.41;nan
12468;BME280;57850;52.922;6.256;2023-02-19T11:26:23;102490.25;;;18.34;nan
12468;BME280;57850;52.922;6.256;2023-02-19T11:28:56;102502.22;;;17.79;nan
12468;BME280;57850;52.922;6.256;2023-02-19T11:31:26;102438.13;;;18.97;nan
12468;BME280;57850;52.922;6.256;2023-02-19T11:33:56;102491.91;;;17.95;nan
12468;BME280;57850;52.922;6.256;2023-02-19T11:36:30;102538.53;;;17.26;nan
12468;BME280;57850;52.922;6.256;2023-02-19T11:39:18;102586.78;;;16.26;nan
12468;BME280;57850;52.922;6.256;2023-02-19T11:44:46;102579.41;;;16.65;nan
12468;BME280;57850;52.922;6.256;2023-02-19T11:47:38;102610.56;;;15.97;nan
12468;BME280;57850;52.922;6.256;2023-02-19T11:50:19;102622.25;;;15.87;nan
12468;BME280;57850;52.922;6.256;2023-02-19T11:52:55;102637.72;;;15.68;nan
12468;BME280;57850;52.922;6.256;2023-02-19T11:55:36;102627.81;;;15.76;nan
12468;BME280;57850;52.922;6.256;2023-02-19T11:58:22;102620.59;;;15.84;nan
12468;BME280;57850;52.922;6.256;2023-02-19T12:01:03;102616.34;;;15.79;nan
12468;BME280;57850;52.922;6.256;2023-02-19T12:03:48;102612.09;;;15.75;nan
12468;BME280;57850;52.922;6.256;2023-02-19T12:06:25;102619.78;;;15.51;nan
12468;BME280;57850;52.922;6.256;2023-02-19T12:09:21;102641.03;;;14.76;nan
12468;BME280;57850;52.922;6.256;2023-02-19T12:12:03;102651.38;;;14.82;nan
12468;BME280;57850;52.922;6.256;2023-02-19T12:14:49;102645.31;;;15.14;nan
12468;BME280;57850;52.922;6.256;2023-02-19T12:17:35;102605.69;;;15.83;nan
12468;BME280;57850;52.922;6.256;2023-02-19T12:20:11;102615.53;;;15.77;nan
12468;BME280;57850;52.922;6.256;2023-02-19T12:22:47;102617.25;;;16.07;nan
12468;BME280;57850;52.922;6.256;2023-02-19T12:25:35;102632.50;;;15.67;nan
12468;BME280;57850;52.922;6.256;2023-02-19T12:28:29;102669.56;;;14.91;nan
12468;BME280;57850;52.922;6.256;2023-02-19T12:31:20;102695.81;;;14.93;nan
12468;BME280;57850;52.922;6.256;2023-02-19T12:34:04;102662.44;;;15.30;nan
12468;BME280;57850;52.922;6.256;2023-02-19T12:36:42;102675.75;;;14.89;nan
12468;BME280;57850;52.922;6.256;2023-02-19T12:39:19;102701.91;;;14.60;nan
12468;BME280;57850;52.922;6.256;2023-02-19T12:41:54;102706.09;;;14.67;nan
12468;BME280;57850;52.922;6.256;2023-02-19T12:44:32;102714.63;;;14.76;nan
12468;BME280;57850;52.922;6.256;2023-02-19T12:47:04;102707.44;;;14.84;nan
12468;BME280;57850;52.922;6.256;2023-02-19T12:49:35;102708.00;;;14.97;nan
12468;BME280;57850;52.922;6.256;2023-02-19T12:52:05;102733.28;;;14.66;nan
12468;BME280;57850;52.922;6.256;2023-02-19T12:54:36;102767.41;;;14.24;nan
12468;BME280;57850;52.922;6.256;2023-02-19T12:57:07;102760.97;;;14.40;nan
12468;BME280;57850;52.922;6.256;2023-02-19T12:59:38;102748.81;;;14.35;nan
12468;BME280;57850;52.922;6.256;2023-02-19T13:02:13;102732.63;;;14.55;nan
12468;BME280;57850;52.922;6.256;2023-02-19T13:04:46;102727.91;;;14.70;nan
12468;BME280;57850;52.922;6.256;2023-02-19T13:07:17;102753.09;;;14.40;nan
12468;BME280;57850;52.922;6.256;2023-02-19T13:09:49;102753.03;;;14.43;nan
12468;BME280;57850;52.922;6.256;2023-02-19T13:12:20;102798.25;;;13.66;nan
12468;BME280;57850;52.922;6.256;2023-02-19T13:14:54;102802.94;;;13.98;nan
12468;BME280;57850;52.922;6.256;2023-02-19T13:17:26;102793.78;;;14.61;nan
12468;BME280;57850;52.922;6.256;2023-02-19T13:19:59;102823.22;;;13.88;nan
12468;BME280;57850;52.922;6.256;2023-02-19T13:22:34;102827.38;;;13.51;nan
12468;BME280;57850;52.922;6.256;2023-02-19T13:25:21;102788.00;;;14.01;nan
12468;BME280;57850;52.922;6.256;2023-02-19T13:28:11;102817.28;;;13.28;nan
12468;BME280;57850;52.922;6.256;2023-02-19T13:31:01;102796.38;;;13.74;nan
12468;BME280;57850;52.922;6.256;2023-02-19T13:33:41;102802.56;;;13.70;nan